Time;durP1;ratioP1;P1;durP2;ratioP2;P2;SDS_P1;SDS_P2;PMS_P1;PMS_P2;Temp;Humidity;BMP_temperature;BMP_pressure;BME280_temperature;BME280_humidity;BME280_pressure;Samples;Min_cycle;Max_cycle;Signal;HPM_P1;HPM_P2
2022/06/15 09:15:12;;;;;;;7.13;2.60;;;25.80;66.40;;;;;;4913051;29;20348;-76
2022/06/15 09:17:39;;;;;;;7.60;2.58;;;25.90;65.40;;;;;;4925473;29;20059;-78
2022/06/15 09:20:13;;;;;;;4.03;2.40;;;25.90;65.40;;;;;;4914651;29;20123;-78
2022/06/15 09:22:46;;;;;;;6.32;2.70;;;25.90;66.00;;;;;;4906630;29;20381;-79
2022/06/15 09:25:21;;;;;;;5.85;2.45;;;26.00;65.20;;;;;;4907027;29;20028;-77
2022/06/15 09:27:53;;;;;;;5.85;2.70;;;26.10;65.70;;;;;;4911358;29;20028;-78
2022/06/15 09:30:41;;;;;;;5.70;2.40;;;26.10;64.50;;;;;;4925320;29;20325;-79
2022/06/15 09:33:21;;;;;;;7.25;2.47;;;26.20;65.30;;;;;;4924066;29;20048;-79
2022/06/15 09:35:52;;;;;;;6.85;2.60;;;26.30;65.40;;;;;;4924549;29;20238;-78
2022/06/15 09:38:19;;;;;;;6.07;2.58;;;26.50;64.90;;;;;;4923981;29;20051;-78
2022/06/15 09:41:10;;;;;;;9.90;2.90;;;26.60;64.60;;;;;;4924398;29;20032;-79
2022/06/15 09:44:22;;;;;;;5.03;2.72;;;26.80;64.30;;;;;;4924517;29;20059;-79
2022/06/15 09:47:01;;;;;;;5.28;2.65;;;26.90;64.40;;;;;;4834082;29;20242;-79
2022/06/15 09:49:52;;;;;;;6.47;2.80;;;26.90;62.80;;;;;;4849404;29;20065;-76
2022/06/15 09:52:48;;;;;;;6.65;2.78;;;26.90;63.00;;;;;;4848982;29;20076;-76
2022/06/15 09:55:39;;;;;;;9.07;2.90;;;27.00;63.40;;;;;;4849101;29;20065;-78
2022/06/15 09:58:07;;;;;;;6.32;2.40;;;27.30;63.60;;;;;;4849231;29;20171;-78
2022/06/15 10:00:36;;;;;;;5.30;2.33;;;27.20;61.70;;;;;;4850980;29;20042;-78
2022/06/15 10:03:06;;;;;;;8.00;2.70;;;27.20;62.20;;;;;;4852298;29;20089;-78
2022/06/15 10:05:39;;;;;;;5.47;2.67;;;27.20;61.50;;;;;;4852593;29;20065;-78
2022/06/15 10:08:10;;;;;;;7.05;2.20;;;27.20;61.70;;;;;;4851841;29;20063;-77
2022/06/15 10:10:48;;;;;;;5.57;2.40;;;27.30;61.20;;;;;;4866680;29;20108;-78
2022/06/15 10:13:17;;;;;;;5.13;2.50;;;27.20;61.80;;;;;;4859021;29;20274;-78
2022/06/15 10:15:43;;;;;;;5.78;2.40;;;27.30;62.10;;;;;;4853794;29;20062;-78
2022/06/15 10:18:26;;;;;;;5.25;2.47;;;27.40;61.40;;;;;;4881319;29;20049;-78
2022/06/15 10:21:12;;;;;;;4.50;2.55;;;27.60;61.00;;;;;;4888652;29;20040;-78
2022/06/15 10:23:53;;;;;;;8.98;2.38;;;27.60;60.70;;;;;;4888592;29;20048;-79
2022/06/15 10:26:38;;;;;;;5.47;2.60;;;27.80;60.20;;;;;;4888017;29;20039;-78
2022/06/15 10:29:18;;;;;;;5.70;2.30;;;27.90;59.40;;;;;;4888206;29;20032;-78
2022/06/15 10:32:10;;;;;;;4.70;2.03;;;27.90;59.10;;;;;;4886770;29;20068;-77
2022/06/15 10:34:45;;;;;;;4.28;2.15;;;28.00;58.80;;;;;;4887924;29;20093;-78
2022/06/15 10:37:13;;;;;;;7.97;2.20;;;28.00;58.70;;;;;;4887989;29;20093;-78
2022/06/15 10:39:46;;;;;;;5.60;2.10;;;28.10;58.40;;;;;;4888149;29;20315;-78
2022/06/15 10:42:41;;;;;;;5.47;2.40;;;28.00;58.60;;;;;;4889715;29;20037;-78
2022/06/15 10:45:26;;;;;;;5.07;2.38;;;28.10;58.10;;;;;;4889816;29;20069;-79
2022/06/15 10:48:00;;;;;;;7.32;2.38;;;28.30;57.90;;;;;;4909891;29;20039;-79
2022/06/15 10:51:03;;;;;;;4.53;2.13;;;28.50;57.50;;;;;;4906397;29;20036;-79
2022/06/15 10:53:51;;;;;;;9.07;2.10;;;28.70;57.30;;;;;;4894854;29;20059;-78
2022/06/15 11:02:06;;;;;;;7.32;2.33;;;29.10;56.80;;;;;;4908530;29;19915;-78
2022/06/15 11:02:20;;;;;;;4.47;2.25;;;29.00;55.80;;;;;;4909243;29;20182;-79
2022/06/15 11:04:46;;;;;;;4.53;2.15;;;29.20;56.00;;;;;;4910251;29;20040;-79
2022/06/15 11:07:40;;;;;;;8.15;2.30;;;29.30;55.60;;;;;;4909313;29;20040;-78
2022/06/15 11:10:40;;;;;;;7.57;2.38;;;29.30;56.10;;;;;;4908899;29;20040;-77
2022/06/15 11:13:29;;;;;;;5.50;2.65;;;29.60;55.60;;;;;;4909561;29;20052;-78
2022/06/15 11:18:46;;;;;;;6.85;2.42;;;29.90;55.70;;;;;;4909774;29;20120;-78
2022/06/15 11:21:17;;;;;;;8.32;2.50;;;30.10;55.90;;;;;;4909339;29;20036;-78
2022/06/15 11:24:24;;;;;;;6.25;2.17;;;30.20;55.20;;;;;;4908270;29;20040;-77
2022/06/15 11:27:04;;;;;;;8.25;2.05;;;30.30;55.30;;;;;;4909506;29;20040;-77
2022/06/15 11:29:48;;;;;;;7.78;2.30;;;30.50;53.20;;;;;;4909092;29;20311;-78
2022/06/15 11:32:48;;;;;;;4.10;2.10;;;30.60;53.80;;;;;;4908542;29;20062;-78
2022/06/15 11:35:13;;;;;;;3.30;1.85;;;30.80;53.70;;;;;;4908709;29;20272;-76
2022/06/15 11:37:48;;;;;;;5.15;2.05;;;31.40;52.50;;;;;;4909603;29;20059;-77
2022/06/15 11:40:28;;;;;;;7.47;1.90;;;31.80;52.40;;;;;;4908949;29;20036;-76
2022/06/15 11:42:54;;;;;;;7.43;2.40;;;32.00;52.20;;;;;;4909630;29;20041;-76
2022/06/15 11:45:29;;;;;;;3.95;1.90;;;32.60;50.90;;;;;;4907980;29;20404;-78
2022/06/15 11:48:13;;;;;;;5.20;1.75;;;33.10;50.50;;;;;;4909517;29;20047;-78
2022/06/15 11:50:51;;;;;;;8.38;2.08;;;33.90;49.80;;;;;;4909754;29;20100;-78
2022/06/15 11:53:43;;;;;;;7.90;1.52;;;34.60;49.20;;;;;;4908838;29;20040;-77
2022/06/15 11:56:11;;;;;;;3.38;1.70;;;35.40;48.00;;;;;;4908301;29;20283;-79
2022/06/15 11:58:52;;;;;;;3.60;1.67;;;36.30;47.50;;;;;;4909130;29;20035;-77
2022/06/15 12:01:44;;;;;;;4.95;1.70;;;37.20;46.50;;;;;;4908175;29;20210;-77
2022/06/15 12:04:34;;;;;;;3.47;1.80;;;37.30;46.30;;;;;;4908883;29;20063;-77
2022/06/15 12:07:17;;;;;;;3.97;1.55;;;38.40;44.50;;;;;;4908498;29;20263;-78
2022/06/15 12:09:54;;;;;;;2.50;1.30;;;38.90;44.40;;;;;;4908896;29;20092;-77
2022/06/15 12:12:38;;;;;;;5.60;1.23;;;40.00;43.40;;;;;;4908410;29;20039;-77
2022/06/15 12:15:34;;;;;;;6.90;1.63;;;40.40;43.10;;;;;;4908392;29;20059;-77
2022/06/15 12:18:31;;;;;;;3.40;1.50;;;40.90;43.10;;;;;;4908939;29;20127;-79
2022/06/15 12:21:37;;;;;;;6.57;1.52;;;41.60;42.30;;;;;;4909067;29;20036;-79
2022/06/15 12:24:15;;;;;;;3.03;1.13;;;42.50;41.60;;;;;;4908945;29;20037;-78
2022/06/15 12:27:01;;;;;;;3.67;1.48;;;43.00;41.20;;;;;;4908463;29;20029;-78
2022/06/15 12:29:54;;;;;;;3.35;1.30;;;43.70;40.70;;;;;;4907763;29;20028;-77
2022/06/15 12:32:36;;;;;;;3.20;1.42;;;44.10;40.50;;;;;;4907566;29;20199;-78
2022/06/15 12:35:21;;;;;;;2.58;1.10;;;44.10;39.70;;;;;;4908281;29;20036;-77
2022/06/15 12:38:05;;;;;;;3.75;1.20;;;44.30;39.80;;;;;;4908357;29;20334;-78
2022/06/15 12:40:39;;;;;;;3.50;1.50;;;45.00;39.50;;;;;;4908025;29;20039;-78
2022/06/15 12:43:19;;;;;;;3.60;1.52;;;45.40;39.40;;;;;;4907074;29;20024;-78
2022/06/15 12:45:52;;;;;;;2.50;1.40;;;45.40;39.80;;;;;;4907714;29;20040;-78
2022/06/15 12:48:38;;;;;;;3.08;1.27;;;45.50;39.10;;;;;;4907519;29;20370;-78
2022/06/15 12:51:11;;;;;;;3.42;1.20;;;44.80;39.20;;;;;;4908138;29;20056;-78
2022/06/15 12:53:55;;;;;;;2.38;1.20;;;45.50;39.30;;;;;;4907415;29;20036;-78
2022/06/15 12:56:50;;;;;;;3.70;1.20;;;45.80;39.00;;;;;;4907371;29;20234;-78
2022/06/15 12:59:44;;;;;;;5.95;1.67;;;46.40;38.30;;;;;;4907641;29;20036;-77
2022/06/15 13:02:50;;;;;;;2.85;1.30;;;47.20;38.40;;;;;;4906356;29;20045;-77
2022/06/15 13:05:25;;;;;;;2.47;1.25;;;47.80;38.30;;;;;;4905795;29;20275;-79
2022/06/15 13:08:21;;;;;;;3.25;1.30;;;48.20;37.20;;;;;;4907677;29;20041;-77
2022/06/15 13:10:53;;;;;;;2.28;1.10;;;48.20;37.00;;;;;;4907509;29;20047;-78
2022/06/15 13:13:31;;;;;;;2.47;1.00;;;48.80;37.30;;;;;;4907161;29;20053;-78
2022/06/15 13:15:59;;;;;;;4.97;1.70;;;49.90;37.00;;;;;;4907476;29;20052;-77
2022/06/15 13:18:52;;;;;;;2.78;1.33;;;50.20;36.70;;;;;;4907172;29;20036;-76
2022/06/15 13:21:29;;;;;;;3.58;1.25;;;50.00;36.30;;;;;;4906564;29;20226;-77
2022/06/15 13:24:08;;;;;;;2.38;1.17;;;49.40;35.80;;;;;;4907784;29;20080;-78
2022/06/15 13:26:37;;;;;;;2.28;1.10;;;48.80;36.00;;;;;;4905948;29;20041;-77
2022/06/15 13:29:06;;;;;;;2.60;1.30;;;48.70;36.40;;;;;;4907673;29;20028;-78
2022/06/15 13:31:49;;;;;;;5.72;1.40;;;50.10;36.50;;;;;;4906608;29;20044;-78
2022/06/15 13:34:17;;;;;;;3.13;1.30;;;50.10;35.90;;;;;;4907781;29;20080;-77
2022/06/15 13:37:15;;;;;;;3.58;1.30;;;49.20;36.00;;;;;;4907485;29;20038;-78
2022/06/15 13:39:49;;;;;;;2.63;1.20;;;49.80;36.20;;;;;;4906643;29;20039;-77
2022/06/15 13:42:40;;;;;;;2.75;1.15;;;50.60;36.00;;;;;;4907394;29;20035;-78
2022/06/15 13:45:34;;;;;;;2.97;1.15;;;50.30;35.50;;;;;;4906866;29;20052;-78
2022/06/15 13:48:06;;;;;;;3.10;1.27;;;51.40;35.10;;;;;;4906601;29;20056;-78
2022/06/15 13:50:43;;;;;;;5.38;1.58;;;50.60;35.30;;;;;;4906702;29;20036;-78
2022/06/15 13:53:25;;;;;;;3.38;1.10;;;50.30;35.40;;;;;;4906811;29;20033;-77
2022/06/15 13:56:03;;;;;;;4.72;1.35;;;49.80;35.60;;;;;;4906955;29;20092;-77
2022/06/15 13:58:46;;;;;;;4.22;1.25;;;50.70;35.90;;;;;;4890733;29;20059;-77
2022/06/15 14:01:41;;;;;;;2.95;1.38;;;51.00;35.60;;;;;;4906597;29;20045;-77
2022/06/15 14:04:41;;;;;;;2.13;1.40;;;50.20;35.30;;;;;;4906973;29;20032;-77
2022/06/15 14:07:33;;;;;;;3.03;1.17;;;50.10;35.20;;;;;;4906917;29;20441;-77
2022/06/15 14:10:07;;;;;;;2.25;1.02;;;49.70;35.10;;;;;;4907033;29;20188;-76
2022/06/15 14:12:55;;;;;;;3.38;1.40;;;49.50;35.50;;;;;;4906171;29;20049;-77
2022/06/15 14:15:38;;;;;;;3.63;1.30;;;48.80;35.90;;;;;;4905454;29;20275;-77
2022/06/15 14:18:22;;;;;;;4.57;1.15;;;49.50;36.30;;;;;;4906971;29;20104;-76
2022/06/15 14:20:48;;;;;;;5.10;1.63;;;50.20;35.30;;;;;;4906586;29;20032;-77
2022/06/15 14:23:36;;;;;;;4.07;1.52;;;49.70;35.50;;;;;;4905582;29;20037;-77
2022/06/15 14:26:04;;;;;;;2.58;1.27;;;49.80;35.70;;;;;;4906960;29;20028;-76
2022/06/15 14:28:31;;;;;;;2.45;1.25;;;50.90;35.70;;;;;;4905951;29;20195;-77
2022/06/15 14:30:58;;;;;;;5.32;1.45;;;51.10;36.10;;;;;;4907264;29;20040;-77
2022/06/15 14:33:26;;;;;;;3.25;1.40;;;51.10;35.60;;;;;;4908923;29;20036;-77
2022/06/15 14:35:59;;;;;;;4.95;1.48;;;50.20;34.90;;;;;;4909063;29;20024;-77
2022/06/15 14:38:26;;;;;;;3.47;1.20;;;50.30;35.70;;;;;;4910078;29;20033;-77
2022/06/15 14:40:52;;;;;;;1.73;1.20;;;51.10;35.40;;;;;;4910266;29;20219;-78
2022/06/15 14:43:21;;;;;;;5.07;1.20;;;51.10;35.00;;;;;;4910644;29;20041;-78
2022/06/15 14:45:53;;;;;;;2.15;1.17;;;51.50;35.60;;;;;;4908645;29;20837;-78
2022/06/15 14:48:28;;;;;;;2.88;1.13;;;49.50;35.30;;;;;;4910577;29;20105;-78
2022/06/15 14:51:15;;;;;;;3.95;1.40;;;50.30;35.70;;;;;;4910486;29;20032;-77
2022/06/15 14:54:11;;;;;;;4.30;1.67;;;51.20;35.50;;;;;;4909668;29;20279;-77
2022/06/15 14:56:46;;;;;;;;;;;51.80;35.20;;;;;;4911609;29;20056;-75
2022/06/15 14:59:24;;;;;;;3.55;1.55;;;51.70;35.20;;;;;;4922993;29;19907;-76
2022/06/15 15:01:58;;;;;;;3.72;1.42;;;51.40;35.20;;;;;;4921953;29;20069;-77
2022/06/15 15:04:25;;;;;;;2.45;1.20;;;50.60;35.30;;;;;;4921271;29;20036;-77
2022/06/15 15:06:58;;;;;;;2.78;1.38;;;50.40;35.00;;;;;;4911439;29;20064;-77
2022/06/15 15:09:26;;;;;;;5.00;1.45;;;51.50;35.30;;;;;;4909355;29;20039;-78
2022/06/15 15:11:52;;;;;;;3.22;1.40;;;51.50;35.00;;;;;;4909992;29;20051;-77
2022/06/15 15:14:32;;;;;;;3.30;1.15;;;50.10;34.70;;;;;;4909920;29;20072;-77
2022/06/15 15:17:03;;;;;;;3.45;1.52;;;51.40;35.50;;;;;;4909361;29;20047;-77
2022/06/15 15:19:42;;;;;;;4.13;1.40;;;52.50;35.40;;;;;;4909108;29;20204;-78
2022/06/15 15:22:18;;;;;;;4.25;1.67;;;52.90;34.90;;;;;;4909703;29;20032;-78
2022/06/15 15:24:57;;;;;;;5.43;1.70;;;52.10;35.00;;;;;;4909095;29;20049;-77
2022/06/15 15:39:12;;;;;;;2.67;1.50;;;52.30;34.80;;;;;;4908447;29;20216;-77
2022/06/15 15:41:38;;;;;;;4.28;1.50;;;52.50;35.00;;;;;;4907696;29;20032;-77
2022/06/15 15:44:06;;;;;;;3.38;1.30;;;52.50;34.90;;;;;;4909311;29;20092;-77
2022/06/15 15:46:34;;;;;;;4.80;1.75;;;52.70;34.80;;;;;;4908388;29;20322;-77
2022/06/15 15:49:01;;;;;;;3.63;1.65;;;52.20;35.00;;;;;;4909246;29;20052;-77
2022/06/15 15:51:27;;;;;;;3.45;1.45;;;51.60;35.30;;;;;;4908439;29;20043;-77
2022/06/15 15:53:53;;;;;;;5.95;1.50;;;51.10;35.60;;;;;;4908955;29;20064;-78
2022/06/15 15:56:19;;;;;;;4.53;1.65;;;51.30;35.80;;;;;;4909560;29;20036;-78
2022/06/15 15:58:48;;;;;;;2.88;1.60;;;51.60;35.40;;;;;;4908354;29;20039;-78
2022/06/15 16:01:14;;;;;;;3.88;1.70;;;51.40;35.00;;;;;;4909090;29;20045;-78
2022/06/15 16:03:41;;;;;;;;;;;51.30;35.10;;;;;;4909141;29;20255;-78
2022/06/15 16:06:07;;;;;;;3.97;1.70;;;51.00;35.00;;;;;;4908795;29;19907;-78
2022/06/15 16:08:34;;;;;;;4.10;1.40;;;51.60;35.30;;;;;;4907494;29;20095;-77
2022/06/15 16:10:59;;;;;;;3.60;1.63;;;51.20;35.20;;;;;;4908868;29;20047;-76
2022/06/15 16:13:26;;;;;;;5.30;1.53;;;50.70;35.40;;;;;;4908764;29;20056;-77
2022/06/15 16:15:56;;;;;;;3.40;1.77;;;50.60;35.50;;;;;;4908210;29;20218;-78
2022/06/15 16:18:23;;;;;;;4.82;1.55;;;50.20;35.80;;;;;;4907673;29;20048;-77
2022/06/15 16:20:50;;;;;;;3.60;1.75;;;49.60;36.20;;;;;;4908200;29;20037;-78
2022/06/15 16:23:21;;;;;;;3.75;1.73;;;49.40;36.20;;;;;;4908643;29;20357;-79
2022/06/15 16:25:48;;;;;;;4.63;1.60;;;48.70;36.30;;;;;;4906914;29;20065;-78
2022/06/15 16:28:15;;;;;;;2.83;1.50;;;46.40;37.30;;;;;;4908493;29;20322;-77
2022/06/15 16:30:42;;;;;;;3.60;1.85;;;44.60;38.40;;;;;;4907688;29;20092;-78
2022/06/15 16:33:08;;;;;;;4.00;1.65;;;42.80;39.70;;;;;;4908533;29;20317;-79
2022/06/15 16:35:37;;;;;;;5.67;1.83;;;42.30;39.80;;;;;;4907928;29;20122;-78
2022/06/15 16:38:07;;;;;;;2.95;1.58;;;42.80;39.70;;;;;;4908537;29;20064;-79
2022/06/15 16:40:33;;;;;;;4.57;1.90;;;43.50;39.30;;;;;;4907854;29;20179;-78
2022/06/15 16:42:59;;;;;;;5.30;1.90;;;44.20;38.30;;;;;;4908396;29;20338;-78
2022/06/15 16:45:26;;;;;;;4.22;2.05;;;43.70;38.60;;;;;;4907627;29;20119;-78
2022/06/15 16:47:52;;;;;;;3.67;1.88;;;43.30;38.70;;;;;;4907913;29;20044;-78
2022/06/15 16:50:18;;;;;;;4.03;1.52;;;43.90;38.50;;;;;;4908454;29;20097;-77
2022/06/15 16:52:45;;;;;;;3.97;1.70;;;44.10;39.00;;;;;;4907761;29;20120;-78
2022/06/15 16:55:17;;;;;;;4.20;1.50;;;44.30;38.30;;;;;;4907597;29;20044;-78
2022/06/15 16:57:44;;;;;;;2.83;1.50;;;44.90;38.60;;;;;;4907602;29;20073;-78
2022/06/15 17:00:12;;;;;;;3.03;1.60;;;45.80;37.50;;;;;;4907547;29;20077;-78
2022/06/15 17:02:39;;;;;;;5.60;1.73;;;46.40;37.10;;;;;;4907270;29;20134;-76
2022/06/15 17:05:05;;;;;;;3.07;1.37;;;46.60;36.90;;;;;;4906854;29;20051;-78
2022/06/15 17:07:33;;;;;;;2.72;1.58;;;46.20;36.80;;;;;;4907354;29;20055;-79
2022/06/15 17:09:58;;;;;;;;;;;46.60;36.80;;;;;;4908143;29;20212;-78
2022/06/15 17:12:25;;;;;;;3.58;1.73;;;46.50;36.20;;;;;;4903147;29;19940;-77
2022/06/15 17:14:51;;;;;;;2.58;1.50;;;46.30;36.40;;;;;;4888464;29;20045;-78
2022/06/15 17:17:17;;;;;;;4.22;1.60;;;46.50;37.10;;;;;;4888629;29;20307;-78
2022/06/15 17:19:43;;;;;;;4.72;1.40;;;46.50;36.40;;;;;;4888619;29;20045;-77
2022/06/15 17:22:09;;;;;;;2.92;1.73;;;46.50;36.10;;;;;;4903497;29;20045;-78
2022/06/15 17:24:35;;;;;;;3.90;1.50;;;46.70;35.60;;;;;;4888535;29;20132;-77
2022/06/15 17:27:02;;;;;;;3.78;1.70;;;46.30;36.10;;;;;;4889477;29;20188;-76
2022/06/15 17:29:28;;;;;;;3.15;1.50;;;45.80;35.60;;;;;;4888937;29;20036;-77
2022/06/15 17:31:58;;;;;;;4.40;1.70;;;45.30;35.50;;;;;;4888269;29;20089;-77
2022/06/15 17:34:24;;;;;;;2.78;1.63;;;45.30;35.60;;;;;;4889113;29;20041;-78
2022/06/15 17:36:50;;;;;;;4.07;1.42;;;44.60;36.00;;;;;;4888380;29;20052;-78
2022/06/15 17:39:16;;;;;;;3.30;1.40;;;44.00;35.90;;;;;;4888951;29;20069;-78
2022/06/15 17:41:47;;;;;;;2.63;1.80;;;43.60;36.30;;;;;;4888309;29;20036;-78
2022/06/15 17:44:13;;;;;;;3.25;1.50;;;43.70;36.30;;;;;;4889323;29;20077;-78
2022/06/15 17:46:41;;;;;;;2.72;1.50;;;43.50;36.90;;;;;;4888051;29;20043;-76
2022/06/15 17:49:09;;;;;;;3.83;1.42;;;43.60;36.00;;;;;;4888822;29;20047;-76
2022/06/15 17:51:35;;;;;;;4.53;1.42;;;43.30;36.70;;;;;;4888126;29;20045;-76
2022/06/15 17:54:02;;;;;;;4.53;1.38;;;42.80;36.20;;;;;;4888448;29;20105;-77
2022/06/15 17:56:28;;;;;;;3.13;1.50;;;42.60;36.80;;;;;;4888560;29;20027;-76
2022/06/15 17:58:57;;;;;;;3.70;1.60;;;42.40;36.80;;;;;;4888368;29;20025;-78
2022/06/15 18:01:23;;;;;;;3.17;1.50;;;42.40;37.30;;;;;;4888563;29;20047;-77
2022/06/15 18:03:50;;;;;;;5.70;1.63;;;42.20;37.00;;;;;;4888021;29;20064;-78
2022/06/15 18:06:16;;;;;;;3.13;1.60;;;42.30;37.50;;;;;;4887805;29;20065;-78
2022/06/15 18:08:42;;;;;;;3.40;1.80;;;42.20;37.20;;;;;;4886827;29;20029;-76
2022/06/15 18:11:11;;;;;;;3.00;1.70;;;42.30;37.10;;;;;;4888237;29;20023;-79
2022/06/15 18:13:41;;;;;;;2.55;1.52;;;41.90;37.00;;;;;;4901399;29;20076;-78
2022/06/15 18:16:30;;;;;;;3.35;1.77;;;41.70;37.50;;;;;;4906857;29;20052;-77
2022/06/15 18:19:10;;;;;;;3.25;1.52;;;41.40;37.80;;;;;;4901191;29;20072;-78
2022/06/15 18:21:39;;;;;;;3.97;1.45;;;41.00;37.70;;;;;;4906463;29;20047;-78
2022/06/15 18:24:12;;;;;;;4.75;1.80;;;40.70;38.20;;;;;;4906843;29;20036;-77
2022/06/15 18:26:46;;;;;;;4.13;1.70;;;40.30;38.30;;;;;;4906444;29;20052;-78
2022/06/15 18:29:12;;;;;;;4.95;2.40;;;40.10;38.70;;;;;;4907143;29;20055;-77
2022/06/15 18:31:46;;;;;;;3.83;1.80;;;40.10;39.20;;;;;;4905001;29;20044;-77
2022/06/15 18:34:12;;;;;;;4.25;1.63;;;39.60;38.70;;;;;;4906971;29;20048;-77
2022/06/15 18:36:43;;;;;;;5.65;1.83;;;38.60;39.00;;;;;;4906602;29;20056;-77
2022/06/15 18:39:09;;;;;;;2.50;1.55;;;37.50;40.20;;;;;;4907188;29;20088;-78
2022/06/15 18:41:37;;;;;;;3.03;1.60;;;36.50;40.90;;;;;;4906829;29;20087;-79
2022/06/15 18:49:33;;;;;;;2.90;1.65;;;34.50;42.80;;;;;;4906725;29;20041;-78
2022/06/15 18:52:00;;;;;;;2.97;2.00;;;34.00;43.90;;;;;;4906313;29;20032;-77
2022/06/15 18:54:26;;;;;;;3.58;2.00;;;33.60;43.70;;;;;;4905392;29;20107;-76
2022/06/15 18:56:53;;;;;;;3.88;2.42;;;33.30;44.20;;;;;;4906413;29;20029;-76
2022/06/15 18:59:19;;;;;;;3.90;2.50;;;33.00;45.10;;;;;;4907028;29;20029;-77
2022/06/15 19:01:44;;;;;;;4.15;2.83;;;32.80;45.40;;;;;;4905856;29;20043;-77
2022/06/15 19:04:12;;;;;;;4.68;2.75;;;32.50;45.00;;;;;;4906848;29;20044;-77
2022/06/15 19:06:39;;;;;;;4.57;2.70;;;32.30;45.20;;;;;;4905095;29;20330;-78
2022/06/15 19:09:05;;;;;;;3.97;2.25;;;31.90;45.50;;;;;;4907323;29;20322;-77
2022/06/15 19:11:33;;;;;;;4.78;2.70;;;31.70;45.10;;;;;;4907008;29;20281;-78
2022/06/15 19:13:58;;;;;;;5.00;2.95;;;31.50;45.70;;;;;;4905987;29;20078;-78
2022/06/15 19:16:25;;;;;;;4.57;3.00;;;31.40;45.70;;;;;;4906024;29;20346;-78
2022/06/15 19:18:52;;;;;;;5.32;3.05;;;31.10;46.50;;;;;;4908605;29;20075;-77
2022/06/15 19:21:19;;;;;;;6.78;2.95;;;30.90;47.00;;;;;;4909979;29;20088;-78
2022/06/15 19:23:45;;;;;;;4.85;3.35;;;30.60;47.00;;;;;;4909511;29;20045;-78
2022/06/15 19:26:11;;;;;;;4.55;3.20;;;30.50;47.60;;;;;;4909936;29;20063;-78
2022/06/15 19:28:37;;;;;;;4.93;3.10;;;30.20;48.30;;;;;;4909974;29;20055;-78
2022/06/15 19:31:07;;;;;;;5.28;3.25;;;30.00;47.60;;;;;;4908826;29;20041;-77
2022/06/15 19:33:33;;;;;;;9.50;3.40;;;29.70;49.10;;;;;;4909735;29;20052;-77
2022/06/15 19:35:59;;;;;;;6.03;3.30;;;29.50;49.90;;;;;;4907917;29;20099;-78
2022/06/15 19:38:25;;;;;;;5.78;3.47;;;29.20;50.50;;;;;;4909519;29;20048;-78
2022/06/15 19:40:52;;;;;;;6.80;3.20;;;29.00;50.80;;;;;;4909286;29;20290;-77
2022/06/15 19:43:24;;;;;;;6.55;3.42;;;28.80;51.30;;;;;;4910080;29;20028;-77
2022/06/15 19:45:50;;;;;;;6.05;3.30;;;28.70;51.60;;;;;;4909055;29;20040;-77
2022/06/15 19:48:18;;;;;;;6.85;3.47;;;28.60;51.90;;;;;;4910539;29;20156;-77
2022/06/15 19:50:45;;;;;;;5.85;3.25;;;28.50;52.30;;;;;;4908922;29;20020;-78
2022/06/15 19:53:12;;;;;;;7.55;3.47;;;28.30;52.40;;;;;;4910284;29;20029;-79
2022/06/15 19:55:39;;;;;;;8.07;3.58;;;28.00;53.40;;;;;;4910483;29;20327;-78
2022/06/15 19:58:07;;;;;;;5.88;3.58;;;27.90;53.10;;;;;;4910687;29;20111;-78
2022/06/15 20:00:34;;;;;;;5.22;3.53;;;27.80;53.20;;;;;;4909687;29;20088;-77
2022/06/15 20:03:00;;;;;;;6.55;3.28;;;27.60;53.60;;;;;;4919723;29;20419;-77
2022/06/15 20:05:27;;;;;;;5.93;3.35;;;27.40;53.70;;;;;;4920997;29;20310;-79
2022/06/15 20:07:53;;;;;;;6.35;3.47;;;27.20;53.90;;;;;;4919986;29;20037;-77
2022/06/15 20:10:22;;;;;;;6.78;3.80;;;27.00;53.90;;;;;;4916313;29;20031;-78
2022/06/15 20:12:49;;;;;;;5.88;3.25;;;27.10;53.80;;;;;;4909062;29;20052;-78
2022/06/15 20:15:15;;;;;;;6.07;3.20;;;26.90;53.90;;;;;;4907518;29;20214;-78
2022/06/15 20:17:46;;;;;;;5.95;3.38;;;26.80;53.90;;;;;;4907781;29;20032;-78
2022/06/15 20:20:15;;;;;;;6.55;3.58;;;26.70;54.30;;;;;;4909959;29;20035;-77
2022/06/15 20:22:48;;;;;;;6.60;3.65;;;26.60;55.00;;;;;;4909411;29;20040;-77
2022/06/15 20:25:15;;;;;;;6.60;3.45;;;26.30;55.20;;;;;;4908377;29;20218;-78
2022/06/15 20:27:48;;;;;;;6.13;3.75;;;26.00;55.70;;;;;;4909092;29;20088;-78
2022/06/15 20:30:14;;;;;;;6.82;3.50;;;25.80;56.10;;;;;;4908068;29;20141;-77
2022/06/15 20:32:40;;;;;;;5.57;3.47;;;25.70;56.30;;;;;;4907540;29;20088;-76
2022/06/15 20:35:07;;;;;;;5.95;3.20;;;25.70;56.20;;;;;;4907767;29;20215;-78
2022/06/15 20:37:32;;;;;;;6.90;3.50;;;25.70;56.60;;;;;;4908148;29;20088;-77
2022/06/15 20:39:58;;;;;;;6.38;3.40;;;25.70;56.00;;;;;;4906849;29;20235;-77
2022/06/15 20:42:28;;;;;;;5.40;3.03;;;25.70;56.10;;;;;;4908090;29;20033;-78
2022/06/15 20:44:56;;;;;;;7.28;3.72;;;25.60;56.00;;;;;;4908014;29;20042;-77
2022/06/15 20:47:23;;;;;;;5.57;3.10;;;25.60;56.00;;;;;;4908367;29;20105;-77
2022/06/15 20:49:52;;;;;;;5.57;3.20;;;25.50;56.20;;;;;;4907762;29;20040;-78
2022/06/15 20:52:20;;;;;;;5.20;2.97;;;25.40;56.00;;;;;;4907013;29;20050;-78
2022/06/15 20:54:46;;;;;;;6.07;3.35;;;25.20;56.80;;;;;;4907468;29;20378;-78
2022/06/15 20:57:12;;;;;;;5.63;3.58;;;25.00;57.60;;;;;;4908073;29;20048;-78
2022/06/15 20:59:40;;;;;;;7.15;3.35;;;24.90;57.90;;;;;;4908006;29;20072;-78
2022/06/15 21:02:11;;;;;;;5.60;3.80;;;24.70;58.00;;;;;;4906630;29;20045;-78
2022/06/15 21:04:36;;;;;;;5.30;3.15;;;24.60;58.20;;;;;;4907598;29;20032;-78
2022/06/15 21:07:09;;;;;;;5.50;3.10;;;24.60;57.40;;;;;;4907282;29;20080;-78
2022/06/15 21:09:35;;;;;;;5.38;3.33;;;24.50;57.50;;;;;;4908235;29;20041;-79
2022/06/15 21:17:37;;;;;;;6.45;3.38;;;24.30;57.60;;;;;;4908045;29;20044;-78
2022/06/15 21:20:09;;;;;;;7.07;3.65;;;24.20;58.20;;;;;;4907313;29;20259;-77
2022/06/15 21:22:36;;;;;;;7.18;3.38;;;24.20;58.40;;;;;;4907643;29;20056;-77
2022/06/15 21:25:05;;;;;;;6.10;3.97;;;24.20;59.40;;;;;;4907578;29;20020;-78
2022/06/15 21:27:31;;;;;;;6.00;3.45;;;24.00;59.60;;;;;;4906397;29;20059;-78
2022/06/15 21:29:58;;;;;;;5.47;3.92;;;23.90;59.80;;;;;;4907437;29;20028;-78
2022/06/15 21:32:24;;;;;;;5.75;3.58;;;23.80;60.50;;;;;;4907613;29;20041;-78
2022/06/15 21:34:51;;;;;;;8.35;4.50;;;23.70;61.00;;;;;;4907630;29;20095;-78
2022/06/15 21:37:18;;;;;;;5.43;3.67;;;23.60;61.10;;;;;;4907996;29;20096;-79
2022/06/15 21:39:43;;;;;;;7.35;4.53;;;23.50;60.90;;;;;;4907717;29;20048;-76
2022/06/15 21:42:14;;;;;;;7.45;4.25;;;23.40;61.40;;;;;;4905871;29;20032;-77
2022/06/15 21:44:41;;;;;;;9.48;4.25;;;23.40;61.60;;;;;;4907763;29;20259;-77
2022/06/15 21:47:07;;;;;;;8.02;4.72;;;23.30;62.00;;;;;;4906445;29;20128;-77
2022/06/15 21:49:37;;;;;;;6.18;4.45;;;23.20;62.80;;;;;;4907558;29;20060;-77
2022/06/15 21:52:03;;;;;;;5.93;4.03;;;23.10;62.40;;;;;;4905618;29;20047;-77
2022/06/15 21:54:29;;;;;;;7.70;4.40;;;23.00;62.60;;;;;;4907650;29;20076;-78
2022/06/15 21:56:55;;;;;;;6.75;3.70;;;23.00;63.10;;;;;;4907076;29;20111;-78
2022/06/15 21:59:22;;;;;;;6.30;4.07;;;22.90;63.30;;;;;;4907402;29;20055;-78
2022/06/15 22:01:48;;;;;;;7.25;4.28;;;22.80;63.90;;;;;;4906757;29;20051;-77
2022/06/15 22:04:16;;;;;;;7.35;4.72;;;22.70;64.60;;;;;;4907246;29;20088;-77
2022/06/15 22:06:43;;;;;;;9.27;4.60;;;22.60;65.40;;;;;;4907665;29;20099;-77
2022/06/15 22:09:09;;;;;;;9.32;4.57;;;22.50;65.80;;;;;;4905922;29;20043;-77
2022/06/15 22:11:35;;;;;;;10.07;4.60;;;22.40;66.10;;;;;;4906232;29;20212;-77
2022/06/15 22:14:01;;;;;;;6.95;4.10;;;22.30;66.30;;;;;;4906635;29;20149;-77
2022/06/15 22:16:27;;;;;;;10.95;5.18;;;22.30;66.00;;;;;;4906651;29;20159;-78
2022/06/15 22:18:53;;;;;;;8.10;4.68;;;22.30;66.20;;;;;;4906745;29;20025;-78
2022/06/15 22:21:20;;;;;;;7.80;4.88;;;22.30;67.10;;;;;;4907468;29;20033;-78
2022/06/15 22:23:46;;;;;;;13.38;6.22;;;22.20;66.30;;;;;;4907501;29;20112;-79
2022/06/15 22:26:13;;;;;;;8.55;5.78;;;22.20;67.20;;;;;;4905437;29;20103;-78
2022/06/15 22:28:39;;;;;;;11.25;6.07;;;22.20;67.70;;;;;;4907351;29;20253;-78
2022/06/15 22:31:07;;;;;;;13.80;6.85;;;22.10;68.00;;;;;;4906393;29;20041;-78
2022/06/15 22:33:37;;;;;;;11.10;6.15;;;22.00;68.40;;;;;;4907219;29;20256;-78
2022/06/15 22:36:02;;;;;;;9.38;5.38;;;21.90;68.60;;;;;;4905410;29;20100;-78
2022/06/15 22:38:28;;;;;;;9.57;5.55;;;21.80;69.00;;;;;;4907113;29;20041;-78
2022/06/15 22:40:54;;;;;;;13.07;5.68;;;21.80;68.40;;;;;;4906587;29;20048;-78
2022/06/15 22:43:21;;;;;;;7.82;5.47;;;21.80;69.10;;;;;;4907269;29;20096;-78
2022/06/15 22:45:48;;;;;;;9.52;5.82;;;21.70;69.70;;;;;;4907060;29;20036;-78
2022/06/15 22:50:39;;;;;;;10.68;5.68;;;21.60;69.90;;;;;;4906386;29;20033;-78
2022/06/15 22:51:01;;;;;;;10.05;5.93;;;21.50;70.40;;;;;;4906197;29;20041;-78
2022/06/15 22:53:29;;;;;;;10.57;6.28;;;21.50;70.10;;;;;;4910004;29;20318;-78
2022/06/15 22:55:56;;;;;;;10.93;5.85;;;21.50;70.60;;;;;;4910277;29;20342;-78
2022/06/15 22:58:24;;;;;;;11.30;5.75;;;21.50;69.50;;;;;;4910801;29;20016;-78
